sensor_id;sensor_type;location;lat;lon;timestamp;temperature;humidity
20081;DHT22;10200;49.232;9.222;2024-03-02T00:02:13;6.90;99.90
20081;DHT22;10200;49.232;9.222;2024-03-02T00:04:39;6.90;99.90
20081;DHT22;10200;49.232;9.222;2024-03-02T00:07:06;6.80;99.90
20081;DHT22;10200;49.232;9.222;2024-03-02T00:09:32;6.80;99.90
20081;DHT22;10200;49.232;9.222;2024-03-02T00:12:00;6.80;99.90
20081;DHT22;10200;49.232;9.222;2024-03-02T00:14:29;6.80;99.90
20081;DHT22;10200;49.232;9.222;2024-03-02T00:16:55;6.80;99.90
20081;DHT22;10200;49.232;9.222;2024-03-02T00:19:21;6.80;99.90
20081;DHT22;10200;49.232;9.222;2024-03-02T00:21:47;6.70;99.90
20081;DHT22;10200;49.232;9.222;2024-03-02T00:24:32;6.80;99.90
20081;DHT22;10200;49.232;9.222;2024-03-02T00:26:59;6.70;99.90
20081;DHT22;10200;49.232;9.222;2024-03-02T00:29:24;6.70;99.90
20081;DHT22;10200;49.232;9.222;2024-03-02T00:31:51;6.70;99.90
20081;DHT22;10200;49.232;9.222;2024-03-02T00:34:17;6.60;99.90
20081;DHT22;10200;49.232;9.222;2024-03-02T00:36:43;6.60;99.90
20081;DHT22;10200;49.232;9.222;2024-03-02T00:39:08;6.60;99.90
20081;DHT22;10200;49.232;9.222;2024-03-02T00:41:37;6.60;99.90
20081;DHT22;10200;49.232;9.222;2024-03-02T00:44:16;6.60;99.90
20081;DHT22;10200;49.232;9.222;2024-03-02T00:46:44;6.50;99.90
20081;DHT22;10200;49.232;9.222;2024-03-02T00:49:23;6.50;99.90
20081;DHT22;10200;49.232;9.222;2024-03-02T00:51:51;6.50;99.90
20081;DHT22;10200;49.232;9.222;2024-03-02T00:54:22;6.50;99.90
20081;DHT22;10200;49.232;9.222;2024-03-02T00:56:50;6.50;99.90
20081;DHT22;10200;49.232;9.222;2024-03-02T00:59:16;6.40;99.90
20081;DHT22;10200;49.232;9.222;2024-03-02T01:01:41;6.50;99.90
20081;DHT22;10200;49.232;9.222;2024-03-02T01:04:08;6.50;99.90
20081;DHT22;10200;49.232;9.222;2024-03-02T01:06:35;6.40;99.90
20081;DHT22;10200;49.232;9.222;2024-03-02T01:09:01;6.40;99.90
20081;DHT22;10200;49.232;9.222;2024-03-02T01:11:26;6.40;99.90
20081;DHT22;10200;49.232;9.222;2024-03-02T01:13:52;6.50;99.90
20081;DHT22;10200;49.232;9.222;2024-03-02T01:16:18;6.40;99.90
20081;DHT22;10200;49.232;9.222;2024-03-02T01:18:44;6.40;99.90
20081;DHT22;10200;49.232;9.222;2024-03-02T01:21:09;6.40;99.90
20081;DHT22;10200;49.232;9.222;2024-03-02T01:23:35;6.40;99.90
20081;DHT22;10200;49.232;9.222;2024-03-02T01:26:00;6.30;99.90
20081;DHT22;10200;49.232;9.222;2024-03-02T01:28:26;6.40;99.90
20081;DHT22;10200;49.232;9.222;2024-03-02T01:30:52;6.40;99.90
20081;DHT22;10200;49.232;9.222;2024-03-02T01:33:19;6.40;99.90
20081;DHT22;10200;49.232;9.222;2024-03-02T01:35:45;6.40;99.90
20081;DHT22;10200;49.232;9.222;2024-03-02T01:38:11;6.40;99.90
20081;DHT22;10200;49.232;9.222;2024-03-02T01:40:37;6.50;99.90
20081;DHT22;10200;49.232;9.222;2024-03-02T01:43:07;6.50;99.90
20081;DHT22;10200;49.232;9.222;2024-03-02T01:45:33;6.50;99.90
20081;DHT22;10200;49.232;9.222;2024-03-02T01:47:59;6.50;99.90
20081;DHT22;10200;49.232;9.222;2024-03-02T01:50:29;6.50;99.90
20081;DHT22;10200;49.232;9.222;2024-03-02T01:52:56;6.40;99.90
20081;DHT22;10200;49.232;9.222;2024-03-02T01:55:22;6.50;99.90
20081;DHT22;10200;49.232;9.222;2024-03-02T01:57:48;6.40;99.90
20081;DHT22;10200;49.232;9.222;2024-03-02T02:00:15;6.30;99.90
20081;DHT22;10200;49.232;9.222;2024-03-02T02:02:40;6.30;99.90
20081;DHT22;10200;49.232;9.222;2024-03-02T02:05:07;6.20;99.90
20081;DHT22;10200;49.232;9.222;2024-03-02T02:07:32;6.10;99.90
20081;DHT22;10200;49.232;9.222;2024-03-02T02:10:00;6.10;99.90
20081;DHT22;10200;49.232;9.222;2024-03-02T02:12:26;6.00;99.90
20081;DHT22;10200;49.232;9.222;2024-03-02T02:14:52;6.00;99.90
20081;DHT22;10200;49.232;9.222;2024-03-02T02:17:17;5.90;99.90
20081;DHT22;10200;49.232;9.222;2024-03-02T02:19:43;5.90;99.90
20081;DHT22;10200;49.232;9.222;2024-03-02T02:22:10;5.90;99.90
20081;DHT22;10200;49.232;9.222;2024-03-02T02:24:36;5.90;99.90
20081;DHT22;10200;49.232;9.222;2024-03-02T02:27:04;6.00;99.90
20081;DHT22;10200;49.232;9.222;2024-03-02T02:29:30;6.00;99.90
20081;DHT22;10200;49.232;9.222;2024-03-02T02:31:55;5.90;99.90
20081;DHT22;10200;49.232;9.222;2024-03-02T02:34:21;5.90;99.90
20081;DHT22;10200;49.232;9.222;2024-03-02T02:36:47;5.90;99.90
20081;DHT22;10200;49.232;9.222;2024-03-02T02:39:15;5.90;99.90
20081;DHT22;10200;49.232;9.222;2024-03-02T02:41:41;5.90;99.90
20081;DHT22;10200;49.232;9.222;2024-03-02T02:44:06;5.90;99.90
20081;DHT22;10200;49.232;9.222;2024-03-02T02:46:32;5.90;99.90
20081;DHT22;10200;49.232;9.222;2024-03-02T02:48:57;5.90;99.90
20081;DHT22;10200;49.232;9.222;2024-03-02T02:51:23;5.80;99.90
20081;DHT22;10200;49.232;9.222;2024-03-02T02:53:51;5.80;99.90
20081;DHT22;10200;49.232;9.222;2024-03-02T02:56:16;5.80;99.90
20081;DHT22;10200;49.232;9.222;2024-03-02T02:58:42;5.70;99.90
20081;DHT22;10200;49.232;9.222;2024-03-02T03:01:08;5.70;99.90
20081;DHT22;10200;49.232;9.222;2024-03-02T03:06:00;5.60;99.90
20081;DHT22;10200;49.232;9.222;2024-03-02T03:08:27;5.60;99.90
20081;DHT22;10200;49.232;9.222;2024-03-02T03:10:53;5.60;99.90
20081;DHT22;10200;49.232;9.222;2024-03-02T03:13:18;5.50;99.90
20081;DHT22;10200;49.232;9.222;2024-03-02T03:15:44;5.50;99.90
20081;DHT22;10200;49.232;9.222;2024-03-02T03:18:10;5.50;99.90
20081;DHT22;10200;49.232;9.222;2024-03-02T03:20:38;5.50;99.90
20081;DHT22;10200;49.232;9.222;2024-03-02T03:23:04;5.50;99.90
20081;DHT22;10200;49.232;9.222;2024-03-02T03:25:30;5.50;99.90
20081;DHT22;10200;49.232;9.222;2024-03-02T03:27:55;5.50;99.90
20081;DHT22;10200;49.232;9.222;2024-03-02T03:30:21;5.40;99.90
20081;DHT22;10200;49.232;9.222;2024-03-02T03:32:47;5.40;99.90
20081;DHT22;10200;49.232;9.222;2024-03-02T03:35:14;5.40;99.90
20081;DHT22;10200;49.232;9.222;2024-03-02T03:37:40;5.40;99.90
20081;DHT22;10200;49.232;9.222;2024-03-02T03:40:06;5.30;99.90
20081;DHT22;10200;49.232;9.222;2024-03-02T03:42:38;5.30;99.90
20081;DHT22;10200;49.232;9.222;2024-03-02T03:45:05;5.30;99.90
20081;DHT22;10200;49.232;9.222;2024-03-02T03:47:31;5.20;99.90
20081;DHT22;10200;49.232;9.222;2024-03-02T03:49:57;5.20;99.90
20081;DHT22;10200;49.232;9.222;2024-03-02T03:52:23;5.10;99.90
20081;DHT22;10200;49.232;9.222;2024-03-02T03:54:49;5.10;99.90
20081;DHT22;10200;49.232;9.222;2024-03-02T03:57:14;5.10;99.90
20081;DHT22;10200;49.232;9.222;2024-03-02T03:59:40;5.10;99.90
20081;DHT22;10200;49.232;9.222;2024-03-02T04:02:05;5.00;99.90
20081;DHT22;10200;49.232;9.222;2024-03-02T04:04:31;5.00;99.90
20081;DHT22;10200;49.232;9.222;2024-03-02T04:06:56;4.90;99.90
20081;DHT22;10200;49.232;9.222;2024-03-02T04:09:22;4.90;99.90
20081;DHT22;10200;49.232;9.222;2024-03-02T04:11:48;4.90;99.90
20081;DHT22;10200;49.232;9.222;2024-03-02T04:14:13;4.90;99.90
20081;DHT22;10200;49.232;9.222;2024-03-02T04:16:39;4.90;99.90
20081;DHT22;10200;49.232;9.222;2024-03-02T04:19:05;5.00;99.90
20081;DHT22;10200;49.232;9.222;2024-03-02T04:21:30;5.00;99.90
20081;DHT22;10200;49.232;9.222;2024-03-02T04:23:56;5.00;99.90
20081;DHT22;10200;49.232;9.222;2024-03-02T04:26:25;4.90;99.90
20081;DHT22;10200;49.232;9.222;2024-03-02T04:28:52;4.90;99.90
20081;DHT22;10200;49.232;9.222;2024-03-02T04:31:18;4.90;99.90
20081;DHT22;10200;49.232;9.222;2024-03-02T04:33:43;4.80;99.90
20081;DHT22;10200;49.232;9.222;2024-03-02T04:36:09;4.80;99.90
20081;DHT22;10200;49.232;9.222;2024-03-02T04:38:35;4.80;99.90
20081;DHT22;10200;49.232;9.222;2024-03-02T04:41:01;4.70;99.90
20081;DHT22;10200;49.232;9.222;2024-03-02T04:43:26;4.70;99.90
20081;DHT22;10200;49.232;9.222;2024-03-02T04:45:52;4.70;99.90
20081;DHT22;10200;49.232;9.222;2024-03-02T04:48:18;4.60;99.90
20081;DHT22;10200;49.232;9.222;2024-03-02T04:50:44;4.60;99.90
20081;DHT22;10200;49.232;9.222;2024-03-02T04:53:10;4.60;99.90
20081;DHT22;10200;49.232;9.222;2024-03-02T04:55:36;4.60;99.90
20081;DHT22;10200;49.232;9.222;2024-03-02T04:58:04;4.60;99.90
20081;DHT22;10200;49.232;9.222;2024-03-02T05:00:30;4.60;99.90
20081;DHT22;10200;49.232;9.222;2024-03-02T05:02:56;4.50;99.90
20081;DHT22;10200;49.232;9.222;2024-03-02T05:05:21;4.50;99.90
20081;DHT22;10200;49.232;9.222;2024-03-02T05:07:47;4.50;99.90
20081;DHT22;10200;49.232;9.222;2024-03-02T05:10:12;4.50;99.90
20081;DHT22;10200;49.232;9.222;2024-03-02T05:12:38;4.50;99.90
20081;DHT22;10200;49.232;9.222;2024-03-02T05:15:14;4.60;99.90
20081;DHT22;10200;49.232;9.222;2024-03-02T05:17:40;4.60;99.90
20081;DHT22;10200;49.232;9.222;2024-03-02T05:20:09;4.50;99.90
20081;DHT22;10200;49.232;9.222;2024-03-02T05:22:35;4.50;99.90
20081;DHT22;10200;49.232;9.222;2024-03-02T05:25:01;4.60;99.90
20081;DHT22;10200;49.232;9.222;2024-03-02T05:27:27;4.60;99.90
20081;DHT22;10200;49.232;9.222;2024-03-02T05:29:53;4.60;99.90
20081;DHT22;10200;49.232;9.222;2024-03-02T05:32:19;4.50;99.90
20081;DHT22;10200;49.232;9.222;2024-03-02T05:34:44;4.50;99.90
20081;DHT22;10200;49.232;9.222;2024-03-02T05:37:10;4.50;99.90
20081;DHT22;10200;49.232;9.222;2024-03-02T05:39:35;4.40;99.90
20081;DHT22;10200;49.232;9.222;2024-03-02T05:42:01;4.30;99.90
20081;DHT22;10200;49.232;9.222;2024-03-02T05:44:26;4.40;99.90
20081;DHT22;10200;49.232;9.222;2024-03-02T05:46:52;4.40;99.90
20081;DHT22;10200;49.232;9.222;2024-03-02T05:49:18;4.40;99.90
20081;DHT22;10200;49.232;9.222;2024-03-02T05:51:43;4.40;99.90
20081;DHT22;10200;49.232;9.222;2024-03-02T05:54:09;4.40;99.90
20081;DHT22;10200;49.232;9.222;2024-03-02T05:56:35;4.40;99.90
20081;DHT22;10200;49.232;9.222;2024-03-02T05:59:01;4.40;99.90
20081;DHT22;10200;49.232;9.222;2024-03-02T06:01:47;4.40;99.90
20081;DHT22;10200;49.232;9.222;2024-03-02T06:04:15;4.40;99.90
20081;DHT22;10200;49.232;9.222;2024-03-02T06:06:41;4.40;99.90
20081;DHT22;10200;49.232;9.222;2024-03-02T06:09:07;4.40;99.90
20081;DHT22;10200;49.232;9.222;2024-03-02T06:11:36;4.40;99.90
20081;DHT22;10200;49.232;9.222;2024-03-02T06:14:03;4.30;99.90
20081;DHT22;10200;49.232;9.222;2024-03-02T06:16:29;4.40;99.90
20081;DHT22;10200;49.232;9.222;2024-03-02T06:18:55;4.40;99.90
20081;DHT22;10200;49.232;9.222;2024-03-02T06:21:26;4.40;99.90
20081;DHT22;10200;49.232;9.222;2024-03-02T06:23:51;4.50;99.90
20081;DHT22;10200;49.232;9.222;2024-03-02T06:26:17;4.50;99.90
20081;DHT22;10200;49.232;9.222;2024-03-02T06:28:44;4.50;99.90
20081;DHT22;10200;49.232;9.222;2024-03-02T06:31:09;4.50;99.90
20081;DHT22;10200;49.232;9.222;2024-03-02T06:33:35;4.60;99.90
20081;DHT22;10200;49.232;9.222;2024-03-02T06:36:01;4.60;99.90
20081;DHT22;10200;49.232;9.222;2024-03-02T06:38:27;4.60;99.90
20081;DHT22;10200;49.232;9.222;2024-03-02T06:40:53;4.70;99.90
20081;DHT22;10200;49.232;9.222;2024-03-02T06:43:19;4.70;99.90
20081;DHT22;10200;49.232;9.222;2024-03-02T06:45:49;4.70;99.90
20081;DHT22;10200;49.232;9.222;2024-03-02T06:48:14;4.70;99.90
20081;DHT22;10200;49.232;9.222;2024-03-02T06:50:44;4.70;99.90
20081;DHT22;10200;49.232;9.222;2024-03-02T06:53:09;4.70;99.90
20081;DHT22;10200;49.232;9.222;2024-03-02T06:55:35;4.70;99.90
20081;DHT22;10200;49.232;9.222;2024-03-02T06:58:00;4.80;99.90
20081;DHT22;10200;49.232;9.222;2024-03-02T07:00:26;5.00;99.90
20081;DHT22;10200;49.232;9.222;2024-03-02T07:02:51;5.10;99.90
20081;DHT22;10200;49.232;9.222;2024-03-02T07:05:17;5.20;99.90
20081;DHT22;10200;49.232;9.222;2024-03-02T07:07:43;5.30;99.90
20081;DHT22;10200;49.232;9.222;2024-03-02T07:10:08;5.40;99.90
20081;DHT22;10200;49.232;9.222;2024-03-02T07:12:34;5.50;99.90
20081;DHT22;10200;49.232;9.222;2024-03-02T07:15:00;5.70;99.90
20081;DHT22;10200;49.232;9.222;2024-03-02T07:17:29;5.80;99.90
20081;DHT22;10200;49.232;9.222;2024-03-02T07:19:54;5.90;99.90
20081;DHT22;10200;49.232;9.222;2024-03-02T07:22:20;6.00;99.90
20081;DHT22;10200;49.232;9.222;2024-03-02T07:24:46;6.10;99.90
20081;DHT22;10200;49.232;9.222;2024-03-02T07:27:12;6.30;99.90
20081;DHT22;10200;49.232;9.222;2024-03-02T07:29:39;6.40;99.90
20081;DHT22;10200;49.232;9.222;2024-03-02T07:32:05;6.60;99.90
20081;DHT22;10200;49.232;9.222;2024-03-02T07:34:31;6.70;99.90
20081;DHT22;10200;49.232;9.222;2024-03-02T07:36:57;6.80;99.90
20081;DHT22;10200;49.232;9.222;2024-03-02T07:39:22;6.90;99.90
20081;DHT22;10200;49.232;9.222;2024-03-02T07:41:48;7.00;99.90
20081;DHT22;10200;49.232;9.222;2024-03-02T07:44:14;7.10;99.90
20081;DHT22;10200;49.232;9.222;2024-03-02T07:46:41;7.20;99.90
20081;DHT22;10200;49.232;9.222;2024-03-02T07:49:07;7.20;99.90
20081;DHT22;10200;49.232;9.222;2024-03-02T07:51:33;7.30;99.90
20081;DHT22;10200;49.232;9.222;2024-03-02T07:53:58;7.40;99.90
20081;DHT22;10200;49.232;9.222;2024-03-02T07:56:24;7.50;99.90
20081;DHT22;10200;49.232;9.222;2024-03-02T07:58:50;7.50;99.90
20081;DHT22;10200;49.232;9.222;2024-03-02T08:01:15;7.40;99.90
20081;DHT22;10200;49.232;9.222;2024-03-02T08:03:43;7.40;99.90
20081;DHT22;10200;49.232;9.222;2024-03-02T08:06:16;7.30;99.90
20081;DHT22;10200;49.232;9.222;2024-03-02T08:08:42;7.30;99.90
20081;DHT22;10200;49.232;9.222;2024-03-02T08:11:08;7.20;99.90
20081;DHT22;10200;49.232;9.222;2024-03-02T08:13:34;7.20;99.90
20081;DHT22;10200;49.232;9.222;2024-03-02T08:16:00;7.20;99.90
20081;DHT22;10200;49.232;9.222;2024-03-02T08:18:28;7.20;99.90
20081;DHT22;10200;49.232;9.222;2024-03-02T08:20:54;7.20;99.90
20081;DHT22;10200;49.232;9.222;2024-03-02T08:23:20;7.10;99.90
20081;DHT22;10200;49.232;9.222;2024-03-02T08:25:46;7.20;99.90
20081;DHT22;10200;49.232;9.222;2024-03-02T08:28:12;7.10;99.90
20081;DHT22;10200;49.232;9.222;2024-03-02T08:30:38;7.20;99.90
20081;DHT22;10200;49.232;9.222;2024-03-02T08:33:04;7.20;99.90
20081;DHT22;10200;49.232;9.222;2024-03-02T08:35:29;7.30;99.90
20081;DHT22;10200;49.232;9.222;2024-03-02T08:37:57;7.30;99.90
20081;DHT22;10200;49.232;9.222;2024-03-02T08:40:23;7.30;99.90
20081;DHT22;10200;49.232;9.222;2024-03-02T08:42:48;7.40;99.90
20081;DHT22;10200;49.232;9.222;2024-03-02T08:45:14;7.50;99.90
20081;DHT22;10200;49.232;9.222;2024-03-02T08:47:40;7.60;99.90
20081;DHT22;10200;49.232;9.222;2024-03-02T08:50:06;7.70;99.90
20081;DHT22;10200;49.232;9.222;2024-03-02T08:52:32;7.70;99.90
20081;DHT22;10200;49.232;9.222;2024-03-02T08:54:57;7.80;99.90
20081;DHT22;10200;49.232;9.222;2024-03-02T08:57:23;7.80;99.90
20081;DHT22;10200;49.232;9.222;2024-03-02T08:59:48;8.00;99.90
20081;DHT22;10200;49.232;9.222;2024-03-02T09:02:14;8.40;99.90
20081;DHT22;10200;49.232;9.222;2024-03-02T09:04:40;8.90;99.90
20081;DHT22;10200;49.232;9.222;2024-03-02T09:07:05;9.40;99.90
20081;DHT22;10200;49.232;9.222;2024-03-02T09:09:32;9.70;99.90
20081;DHT22;10200;49.232;9.222;2024-03-02T09:11:58;10.10;99.90
20081;DHT22;10200;49.232;9.222;2024-03-02T09:14:24;10.50;99.90
20081;DHT22;10200;49.232;9.222;2024-03-02T09:16:49;11.00;99.90
20081;DHT22;10200;49.232;9.222;2024-03-02T09:19:15;11.20;99.90
20081;DHT22;10200;49.232;9.222;2024-03-02T09:21:42;11.40;99.90
20081;DHT22;10200;49.232;9.222;2024-03-02T09:24:07;11.50;99.90
20081;DHT22;10200;49.232;9.222;2024-03-02T09:26:33;11.70;99.90
20081;DHT22;10200;49.232;9.222;2024-03-02T09:28:58;11.70;99.90
20081;DHT22;10200;49.232;9.222;2024-03-02T09:31:24;11.80;99.90
20081;DHT22;10200;49.232;9.222;2024-03-02T09:33:50;11.90;99.90
20081;DHT22;10200;49.232;9.222;2024-03-02T09:36:19;12.10;99.90
20081;DHT22;10200;49.232;9.222;2024-03-02T09:38:45;12.20;99.90
20081;DHT22;10200;49.232;9.222;2024-03-02T09:41:11;12.20;99.90
20081;DHT22;10200;49.232;9.222;2024-03-02T09:43:37;12.20;99.90
20081;DHT22;10200;49.232;9.222;2024-03-02T09:46:03;12.20;99.90
20081;DHT22;10200;49.232;9.222;2024-03-02T09:48:29;12.30;99.90
20081;DHT22;10200;49.232;9.222;2024-03-02T09:50:55;12.40;99.90
20081;DHT22;10200;49.232;9.222;2024-03-02T09:53:21;12.30;98.20
20081;DHT22;10200;49.232;9.222;2024-03-02T09:55:47;12.20;97.90
20081;DHT22;10200;49.232;9.222;2024-03-02T09:58:13;12.20;99.30
20081;DHT22;10200;49.232;9.222;2024-03-02T10:00:38;12.30;99.00
20081;DHT22;10200;49.232;9.222;2024-03-02T10:03:04;12.40;99.30
20081;DHT22;10200;49.232;9.222;2024-03-02T10:05:31;12.30;97.90
20081;DHT22;10200;49.232;9.222;2024-03-02T10:08:03;12.30;97.80
20081;DHT22;10200;49.232;9.222;2024-03-02T10:10:39;12.30;98.10
20081;DHT22;10200;49.232;9.222;2024-03-02T10:13:10;12.30;97.20
20081;DHT22;10200;49.232;9.222;2024-03-02T10:15:37;12.20;96.70
20081;DHT22;10200;49.232;9.222;2024-03-02T10:18:13;12.20;96.70
20081;DHT22;10200;49.232;9.222;2024-03-02T10:20:40;12.20;96.70
20081;DHT22;10200;49.232;9.222;2024-03-02T10:23:13;12.20;96.60
20081;DHT22;10200;49.232;9.222;2024-03-02T10:25:39;12.30;96.60
20081;DHT22;10200;49.232;9.222;2024-03-02T10:28:05;12.30;96.60
20081;DHT22;10200;49.232;9.222;2024-03-02T10:30:32;12.30;96.80
20081;DHT22;10200;49.232;9.222;2024-03-02T10:32:58;12.40;97.00
20081;DHT22;10200;49.232;9.222;2024-03-02T10:35:23;12.40;96.10
20081;DHT22;10200;49.232;9.222;2024-03-02T10:37:49;12.50;96.10
20081;DHT22;10200;49.232;9.222;2024-03-02T10:40:16;12.30;95.80
20081;DHT22;10200;49.232;9.222;2024-03-02T10:42:44;12.50;95.60
20081;DHT22;10200;49.232;9.222;2024-03-02T10:45:11;12.50;94.40
20081;DHT22;10200;49.232;9.222;2024-03-02T10:47:38;12.50;93.60
20081;DHT22;10200;49.232;9.222;2024-03-02T10:50:07;12.50;94.00
20081;DHT22;10200;49.232;9.222;2024-03-02T10:52:35;12.60;93.50
20081;DHT22;10200;49.232;9.222;2024-03-02T10:55:00;12.60;92.70
20081;DHT22;10200;49.232;9.222;2024-03-02T10:57:27;12.60;92.10
20081;DHT22;10200;49.232;9.222;2024-03-02T11:00:03;12.60;92.30
20081;DHT22;10200;49.232;9.222;2024-03-02T11:02:30;12.70;92.40
20081;DHT22;10200;49.232;9.222;2024-03-02T11:05:00;12.80;92.30
20081;DHT22;10200;49.232;9.222;2024-03-02T11:07:27;12.80;92.30
20081;DHT22;10200;49.232;9.222;2024-03-02T11:10:01;12.90;91.90
20081;DHT22;10200;49.232;9.222;2024-03-02T11:12:38;13.00;93.90
20081;DHT22;10200;49.232;9.222;2024-03-02T11:15:11;13.00;92.00
20081;DHT22;10200;49.232;9.222;2024-03-02T11:17:40;13.10;91.50
20081;DHT22;10200;49.232;9.222;2024-03-02T11:20:07;13.10;90.70
20081;DHT22;10200;49.232;9.222;2024-03-02T11:22:35;13.10;90.40
20081;DHT22;10200;49.232;9.222;2024-03-02T11:25:01;13.20;90.60
20081;DHT22;10200;49.232;9.222;2024-03-02T11:32:57;13.30;90.10
20081;DHT22;10200;49.232;9.222;2024-03-02T11:35:27;13.40;89.20
20081;DHT22;10200;49.232;9.222;2024-03-02T11:37:56;13.40;88.20
20081;DHT22;10200;49.232;9.222;2024-03-02T11:40:28;13.40;87.90
20081;DHT22;10200;49.232;9.222;2024-03-02T11:42:54;13.50;87.30
20081;DHT22;10200;49.232;9.222;2024-03-02T11:45:26;13.50;87.00
20081;DHT22;10200;49.232;9.222;2024-03-02T11:47:57;13.50;87.90
20081;DHT22;10200;49.232;9.222;2024-03-02T11:50:40;13.60;87.50
20081;DHT22;10200;49.232;9.222;2024-03-02T11:53:07;13.70;87.60
20081;DHT22;10200;49.232;9.222;2024-03-02T11:55:38;13.70;86.90
20081;DHT22;10200;49.232;9.222;2024-03-02T11:58:05;13.80;85.40
20081;DHT22;10200;49.232;9.222;2024-03-02T12:00:31;13.80;85.80
20081;DHT22;10200;49.232;9.222;2024-03-02T12:03:07;13.90;85.50
20081;DHT22;10200;49.232;9.222;2024-03-02T12:05:34;13.90;83.70
20081;DHT22;10200;49.232;9.222;2024-03-02T12:08:02;13.90;83.90
20081;DHT22;10200;49.232;9.222;2024-03-02T12:10:28;14.00;84.00
20081;DHT22;10200;49.232;9.222;2024-03-02T12:12:57;14.10;83.90
20081;DHT22;10200;49.232;9.222;2024-03-02T12:15:28;14.10;82.80
20081;DHT22;10200;49.232;9.222;2024-03-02T12:17:56;14.20;81.70
20081;DHT22;10200;49.232;9.222;2024-03-02T12:20:22;14.20;81.10
20081;DHT22;10200;49.232;9.222;2024-03-02T12:22:52;14.20;80.30
20081;DHT22;10200;49.232;9.222;2024-03-02T12:25:22;14.20;79.50
20081;DHT22;10200;49.232;9.222;2024-03-02T12:27:54;14.30;79.50
20081;DHT22;10200;49.232;9.222;2024-03-02T12:30:21;14.30;78.90
20081;DHT22;10200;49.232;9.222;2024-03-02T12:32:47;14.30;78.20
20081;DHT22;10200;49.232;9.222;2024-03-02T12:35:13;14.30;77.50
20081;DHT22;10200;49.232;9.222;2024-03-02T12:37:49;14.40;77.10
20081;DHT22;10200;49.232;9.222;2024-03-02T12:40:17;14.40;77.70
20081;DHT22;10200;49.232;9.222;2024-03-02T12:42:44;14.50;77.80
20081;DHT22;10200;49.232;9.222;2024-03-02T12:45:11;14.60;77.40
20081;DHT22;10200;49.232;9.222;2024-03-02T12:47:38;14.70;77.20
20081;DHT22;10200;49.232;9.222;2024-03-02T12:50:04;14.70;76.30
20081;DHT22;10200;49.232;9.222;2024-03-02T12:52:31;14.70;76.90
20081;DHT22;10200;49.232;9.222;2024-03-02T12:55:05;14.80;76.70
20081;DHT22;10200;49.232;9.222;2024-03-02T12:57:33;14.80;76.90
20081;DHT22;10200;49.232;9.222;2024-03-02T13:00:03;14.90;75.60
20081;DHT22;10200;49.232;9.222;2024-03-02T13:02:36;14.90;75.80
20081;DHT22;10200;49.232;9.222;2024-03-02T13:05:02;15.00;76.10
20081;DHT22;10200;49.232;9.222;2024-03-02T13:07:28;15.10;74.20
20081;DHT22;10200;49.232;9.222;2024-03-02T13:09:55;15.20;74.80
20081;DHT22;10200;49.232;9.222;2024-03-02T13:12:22;15.20;75.20
20081;DHT22;10200;49.232;9.222;2024-03-02T13:14:54;15.30;74.60
20081;DHT22;10200;49.232;9.222;2024-03-02T13:17:20;15.40;73.00
20081;DHT22;10200;49.232;9.222;2024-03-02T13:19:56;15.40;72.60
20081;DHT22;10200;49.232;9.222;2024-03-02T13:22:22;15.50;71.70
20081;DHT22;10200;49.232;9.222;2024-03-02T13:24:49;15.60;72.40
20081;DHT22;10200;49.232;9.222;2024-03-02T13:27:15;15.70;71.60
20081;DHT22;10200;49.232;9.222;2024-03-02T13:29:41;15.70;72.00
20081;DHT22;10200;49.232;9.222;2024-03-02T13:32:07;15.80;71.30
20081;DHT22;10200;49.232;9.222;2024-03-02T13:34:33;15.70;70.80
20081;DHT22;10200;49.232;9.222;2024-03-02T13:36:58;15.80;70.60
20081;DHT22;10200;49.232;9.222;2024-03-02T13:39:26;15.80;70.00
20081;DHT22;10200;49.232;9.222;2024-03-02T13:41:52;15.90;68.90
20081;DHT22;10200;49.232;9.222;2024-03-02T13:44:22;15.90;68.20
20081;DHT22;10200;49.232;9.222;2024-03-02T13:46:48;16.00;69.20
20081;DHT22;10200;49.232;9.222;2024-03-02T13:49:14;16.00;67.50
20081;DHT22;10200;49.232;9.222;2024-03-02T13:51:40;16.10;67.00
20081;DHT22;10200;49.232;9.222;2024-03-02T13:54:05;16.00;65.90
20081;DHT22;10200;49.232;9.222;2024-03-02T13:56:31;16.00;65.40
20081;DHT22;10200;49.232;9.222;2024-03-02T13:58:58;16.10;65.40
20081;DHT22;10200;49.232;9.222;2024-03-02T14:01:24;16.10;65.90
20081;DHT22;10200;49.232;9.222;2024-03-02T14:03:50;16.20;65.60
20081;DHT22;10200;49.232;9.222;2024-03-02T14:06:16;16.20;64.40
20081;DHT22;10200;49.232;9.222;2024-03-02T14:08:42;16.10;64.10
20081;DHT22;10200;49.232;9.222;2024-03-02T14:11:10;16.10;63.80
20081;DHT22;10200;49.232;9.222;2024-03-02T14:13:41;16.10;63.60
20081;DHT22;10200;49.232;9.222;2024-03-02T14:16:06;16.10;63.50
20081;DHT22;10200;49.232;9.222;2024-03-02T14:18:32;16.00;63.70
20081;DHT22;10200;49.232;9.222;2024-03-02T14:20:58;16.00;63.60
20081;DHT22;10200;49.232;9.222;2024-03-02T14:23:23;16.00;63.70
20081;DHT22;10200;49.232;9.222;2024-03-02T14:25:51;16.10;63.50
20081;DHT22;10200;49.232;9.222;2024-03-02T14:28:16;16.10;62.40
20081;DHT22;10200;49.232;9.222;2024-03-02T14:30:42;16.10;62.20
20081;DHT22;10200;49.232;9.222;2024-03-02T14:33:08;16.10;63.40
20081;DHT22;10200;49.232;9.222;2024-03-02T14:35:33;16.10;64.10
20081;DHT22;10200;49.232;9.222;2024-03-02T14:37:59;16.20;64.30
20081;DHT22;10200;49.232;9.222;2024-03-02T14:40:25;16.20;64.00
20081;DHT22;10200;49.232;9.222;2024-03-02T14:42:53;16.10;63.80
20081;DHT22;10200;49.232;9.222;2024-03-02T14:45:18;16.10;63.50
20081;DHT22;10200;49.232;9.222;2024-03-02T14:47:44;16.10;63.50
20081;DHT22;10200;49.232;9.222;2024-03-02T14:50:10;16.10;63.30
20081;DHT22;10200;49.232;9.222;2024-03-02T14:52:36;16.10;63.20
20081;DHT22;10200;49.232;9.222;2024-03-02T14:55:02;15.90;63.10
20081;DHT22;10200;49.232;9.222;2024-03-02T14:57:32;16.00;62.60
20081;DHT22;10200;49.232;9.222;2024-03-02T14:59:58;15.90;62.40
20081;DHT22;10200;49.232;9.222;2024-03-02T15:02:23;16.00;62.60
20081;DHT22;10200;49.232;9.222;2024-03-02T15:04:49;16.00;62.80
20081;DHT22;10200;49.232;9.222;2024-03-02T15:07:15;16.00;62.50
20081;DHT22;10200;49.232;9.222;2024-03-02T15:09:41;16.00;61.90
20081;DHT22;10200;49.232;9.222;2024-03-02T15:12:07;16.00;61.80
20081;DHT22;10200;49.232;9.222;2024-03-02T15:14:38;16.10;61.60
20081;DHT22;10200;49.232;9.222;2024-03-02T15:17:06;16.20;61.40
20081;DHT22;10200;49.232;9.222;2024-03-02T15:19:31;16.10;61.40
20081;DHT22;10200;49.232;9.222;2024-03-02T15:21:57;16.10;61.00
20081;DHT22;10200;49.232;9.222;2024-03-02T15:24:23;16.20;61.60
20081;DHT22;10200;49.232;9.222;2024-03-02T15:26:50;16.10;61.50
20081;DHT22;10200;49.232;9.222;2024-03-02T15:29:15;16.10;61.40
20081;DHT22;10200;49.232;9.222;2024-03-02T15:31:41;16.20;61.50
20081;DHT22;10200;49.232;9.222;2024-03-02T15:34:06;16.20;61.50
20081;DHT22;10200;49.232;9.222;2024-03-02T15:36:33;16.20;61.60
20081;DHT22;10200;49.232;9.222;2024-03-02T15:38:59;16.10;61.20
20081;DHT22;10200;49.232;9.222;2024-03-02T15:41:26;16.10;61.10
20081;DHT22;10200;49.232;9.222;2024-03-02T15:43:51;16.20;61.10
20081;DHT22;10200;49.232;9.222;2024-03-02T15:46:17;16.20;61.10